createdAt,value
2023-02-02T00:00:33.413Z,32.99
2023-02-02T00:03:00.286Z,33.22
2023-02-02T00:05:27.286Z,35.18
2023-02-02T00:07:54.039Z,35.85
2023-02-02T00:10:20.799Z,37.35
2023-02-02T00:12:47.545Z,37.36
2023-02-02T00:15:14.292Z,36.18
2023-02-02T00:17:41.221Z,35.08
2023-02-02T00:20:07.952Z,34.54
2023-02-02T00:22:35.191Z,34.25
2023-02-02T00:25:01.938Z,33.86
2023-02-02T00:27:28.719Z,34.05
2023-02-02T00:29:57.332Z,33.90
2023-02-02T00:32:24.072Z,33.47
2023-02-02T00:34:50.829Z,33.48
2023-02-02T00:37:17.558Z,33.47
2023-02-02T00:39:44.283Z,33.28
2023-02-02T00:42:11.045Z,33.48
2023-02-02T00:44:56.474Z,33.30
2023-02-02T00:47:23.229Z,33.12
2023-02-02T00:49:49.986Z,32.98
2023-02-02T00:52:16.728Z,33.15
2023-02-02T00:54:43.462Z,33.23
2023-02-02T00:57:10.197Z,34.41
2023-02-02T00:59:36.923Z,35.62
2023-02-02T01:02:03.737Z,37.48
2023-02-02T01:04:30.588Z,38.08
2023-02-02T01:06:57.354Z,36.19
2023-02-02T01:09:24.097Z,35.38
2023-02-02T01:11:50.851Z,34.55
2023-02-02T01:14:17.650Z,34.54
2023-02-02T01:16:44.560Z,34.17
2023-02-02T01:19:11.660Z,33.96
2023-02-02T01:21:38.420Z,33.77
2023-02-02T01:24:05.188Z,33.76
2023-02-02T01:26:31.975Z,33.58
2023-02-02T01:28:58.712Z,33.59
2023-02-02T01:31:25.477Z,33.28
2023-02-02T01:33:52.204Z,33.31
2023-02-02T01:36:18.945Z,33.27
2023-02-02T01:38:45.705Z,33.08
2023-02-02T01:41:12.461Z,33.03
2023-02-02T01:43:39.289Z,33.06
2023-02-02T01:46:06.086Z,33.28
2023-02-02T01:48:32.875Z,32.88
2023-02-02T01:50:59.621Z,33.35
2023-02-02T01:53:26.380Z,35.24
2023-02-02T01:55:53.140Z,35.35
2023-02-02T01:58:19.896Z,36.89
2023-02-02T02:00:47.159Z,36.81
2023-02-02T02:03:13.975Z,36.67
2023-02-02T02:05:40.723Z,36.98
2023-02-02T02:08:07.503Z,36.92
2023-02-02T02:10:34.821Z,36.92
2023-02-02T02:13:01.586Z,36.35
2023-02-02T02:15:47.111Z,35.32
2023-02-02T02:18:13.852Z,34.66
2023-02-02T02:20:59.239Z,34.16
2023-02-02T02:23:44.628Z,34.37
2023-02-02T02:26:30.100Z,33.84
2023-02-02T02:28:56.885Z,34.08
2023-02-02T02:31:23.722Z,33.72
2023-02-02T02:33:50.507Z,33.52
2023-02-02T02:36:17.251Z,33.60
2023-02-02T02:38:43.990Z,33.56
2023-02-02T02:41:10.851Z,33.40
2023-02-02T02:43:37.609Z,33.54
2023-02-02T02:46:04.392Z,33.38
2023-02-02T02:48:31.188Z,33.38
2023-02-02T02:50:57.937Z,33.39
2023-02-02T02:53:24.697Z,33.28
2023-02-02T02:55:51.473Z,33.05
2023-02-02T02:58:18.227Z,33.25
2023-02-02T03:00:44.960Z,32.88
2023-02-02T03:03:11.733Z,32.86
2023-02-02T03:05:38.508Z,34.52
2023-02-02T03:08:05.520Z,35.88
2023-02-02T03:10:32.278Z,35.91
2023-02-02T03:12:59.034Z,37.22
2023-02-02T03:15:26.094Z,37.85
2023-02-02T03:17:53.152Z,37.36
2023-02-02T03:20:19.942Z,37.13
2023-02-02T03:22:46.687Z,36.47
2023-02-02T03:25:13.819Z,35.34
2023-02-02T03:27:40.569Z,34.60
2023-02-02T03:30:07.899Z,34.53
2023-02-02T03:32:34.715Z,34.12
2023-02-02T03:35:01.461Z,34.04
2023-02-02T03:37:28.201Z,33.92
2023-02-02T03:39:54.940Z,33.80
2023-02-02T03:42:21.695Z,33.88
2023-02-02T03:44:48.468Z,33.66
2023-02-02T03:47:15.247Z,33.55
2023-02-02T03:49:41.985Z,33.61
2023-02-02T03:52:08.709Z,33.45
2023-02-02T03:54:35.509Z,33.30
2023-02-02T03:57:02.259Z,33.12
2023-02-02T03:59:29.003Z,33.43
2023-02-02T04:01:55.812Z,33.28
2023-02-02T04:04:22.597Z,33.34
2023-02-02T04:06:49.323Z,33.17
2023-02-02T04:09:16.071Z,33.27
2023-02-02T04:11:42.840Z,33.10
2023-02-02T04:14:09.684Z,32.92
2023-02-02T04:16:37.645Z,32.89
2023-02-02T04:19:04.459Z,34.53
2023-02-02T04:21:31.200Z,34.66
2023-02-02T04:23:57.957Z,35.47
2023-02-02T04:26:26.066Z,36.29
2023-02-02T04:28:52.995Z,36.94
2023-02-02T04:31:19.808Z,37.08
2023-02-02T04:33:46.552Z,36.64
2023-02-02T04:36:13.363Z,36.87
2023-02-02T04:38:40.189Z,35.72
2023-02-02T04:41:07.222Z,34.62
2023-02-02T04:43:33.962Z,34.61
2023-02-02T04:46:00.753Z,34.23
2023-02-02T04:48:27.553Z,34.14
2023-02-02T04:50:54.286Z,34.21
2023-02-02T04:53:21.029Z,33.74
2023-02-02T04:55:47.770Z,33.66
2023-02-02T04:58:14.519Z,33.83
2023-02-02T05:00:41.302Z,33.59
2023-02-02T05:03:08.069Z,33.49
2023-02-02T05:05:34.831Z,33.25
2023-02-02T05:08:01.573Z,33.29
2023-02-02T05:10:28.311Z,33.35
2023-02-02T05:12:55.037Z,33.17
2023-02-02T05:15:22.132Z,33.46
2023-02-02T05:17:48.981Z,33.22
2023-02-02T05:20:15.762Z,33.22
2023-02-02T05:22:42.512Z,33.07
2023-02-02T05:25:09.256Z,33.04
2023-02-02T05:27:36.070Z,33.82
2023-02-02T05:30:02.894Z,35.20
2023-02-02T05:32:29.710Z,34.77
2023-02-02T05:34:56.454Z,36.56
2023-02-02T05:37:23.350Z,37.24
2023-02-02T05:39:52.049Z,37.33
2023-02-02T05:42:18.833Z,37.63
2023-02-02T05:44:45.626Z,36.63
2023-02-02T05:47:12.354Z,34.99
2023-02-02T05:49:39.086Z,35.07
2023-02-02T05:52:05.855Z,34.36
2023-02-02T05:54:32.642Z,34.29
2023-02-02T05:57:01.079Z,34.02
2023-02-02T05:59:29.123Z,33.93
2023-02-02T06:01:55.911Z,33.81
2023-02-02T06:04:22.899Z,33.83
2023-02-02T06:06:49.687Z,33.75
2023-02-02T06:09:16.417Z,33.77
2023-02-02T06:11:43.158Z,33.51
2023-02-02T06:14:09.901Z,33.34
2023-02-02T06:16:36.730Z,33.42
2023-02-02T06:19:03.549Z,33.12
2023-02-02T06:21:33.216Z,33.04
2023-02-02T06:24:00.041Z,33.18
2023-02-02T06:26:27.013Z,33.22
2023-02-02T06:28:53.818Z,32.96
2023-02-02T06:31:20.683Z,33.04
2023-02-02T06:33:47.466Z,32.95
2023-02-02T06:36:14.229Z,32.85
2023-02-02T06:38:40.962Z,35.08
2023-02-02T06:41:07.688Z,35.35
2023-02-02T06:43:34.464Z,36.52
2023-02-02T06:46:01.256Z,37.00
2023-02-02T06:48:28.018Z,35.91
2023-02-02T06:50:54.826Z,35.25
2023-02-02T06:53:24.622Z,34.25
2023-02-02T06:55:51.359Z,34.12
2023-02-02T06:58:18.170Z,34.01
2023-02-02T07:00:44.907Z,33.61
2023-02-02T07:03:11.661Z,33.85
2023-02-02T07:05:39.223Z,33.61
2023-02-02T07:08:05.967Z,33.42
2023-02-02T07:11:13.235Z,33.47
2023-02-02T07:13:19.486Z,33.51
2023-02-02T07:15:46.270Z,33.19
2023-02-02T07:18:13.071Z,33.13
2023-02-02T07:20:39.839Z,33.10
2023-02-02T07:23:06.652Z,33.09
2023-02-02T07:25:33.417Z,33.36
2023-02-02T07:28:00.232Z,33.08
2023-02-02T07:30:29.644Z,34.04
2023-02-02T07:32:57.228Z,35.44
2023-02-02T07:35:24.407Z,35.88
2023-02-02T07:37:51.387Z,36.25
2023-02-02T07:40:18.171Z,36.98
2023-02-02T07:42:46.405Z,36.72
2023-02-02T07:45:24.554Z,36.41
2023-02-02T07:47:54.549Z,35.54
2023-02-02T07:50:21.635Z,34.88
2023-02-02T07:52:48.374Z,34.43
2023-02-02T07:55:15.223Z,34.19
2023-02-02T07:57:42.003Z,33.93
2023-02-02T08:00:09.346Z,33.69
2023-02-02T08:02:36.129Z,33.57
2023-02-02T08:05:02.930Z,33.66
2023-02-02T08:07:32.179Z,33.45
2023-02-02T08:09:58.916Z,33.68
2023-02-02T08:12:26.445Z,33.61
2023-02-02T08:14:53.392Z,33.58
2023-02-02T08:17:20.158Z,33.25
2023-02-02T08:19:46.910Z,33.34
2023-02-02T08:22:13.662Z,33.37
2023-02-02T08:24:42.742Z,33.39
2023-02-02T08:27:09.507Z,32.96
2023-02-02T08:29:36.278Z,33.11
2023-02-02T08:32:03.313Z,34.03
2023-02-02T08:34:30.089Z,35.26
2023-02-02T08:36:56.843Z,35.08
2023-02-02T08:39:24.478Z,35.90
2023-02-02T08:41:51.275Z,36.68
2023-02-02T08:44:18.077Z,35.79
2023-02-02T08:46:46.395Z,35.16
2023-02-02T08:49:13.175Z,34.67
2023-02-02T08:51:39.918Z,34.33
2023-02-02T08:54:06.702Z,34.33
2023-02-02T08:56:33.475Z,34.02
2023-02-02T08:59:00.331Z,33.80
2023-02-02T09:01:27.173Z,33.65
2023-02-02T09:03:53.918Z,33.64
2023-02-02T09:06:20.987Z,33.61
2023-02-02T09:08:47.772Z,33.28
2023-02-02T09:11:14.626Z,33.69
2023-02-02T09:13:41.473Z,33.45
2023-02-02T09:16:08.264Z,33.14
2023-02-02T09:18:35.205Z,33.28
2023-02-02T09:21:02.019Z,33.23
2023-02-02T09:23:28.846Z,34.80
2023-02-02T09:25:55.663Z,34.75
2023-02-02T09:28:22.412Z,35.42
2023-02-02T09:30:49.553Z,36.56
2023-02-02T09:33:16.329Z,36.84
2023-02-02T09:35:43.106Z,36.94
2023-02-02T09:38:09.954Z,36.52
2023-02-02T09:40:36.758Z,35.50
2023-02-02T09:43:03.983Z,35.21
2023-02-02T09:45:30.765Z,34.27
2023-02-02T09:47:58.325Z,34.14
2023-02-02T09:50:25.065Z,34.27
2023-02-02T09:52:51.820Z,34.01
2023-02-02T09:55:19.744Z,33.87
2023-02-02T09:57:46.487Z,34.08
2023-02-02T10:00:13.245Z,33.85
2023-02-02T10:02:40.023Z,33.70
2023-02-02T10:05:08.555Z,33.66
2023-02-02T10:07:35.335Z,33.67
2023-02-02T10:10:02.102Z,33.24
2023-02-02T10:12:28.876Z,33.44
2023-02-02T10:14:57.968Z,33.47
2023-02-02T10:17:24.800Z,33.47
2023-02-02T10:19:51.550Z,32.97
2023-02-02T10:22:18.312Z,34.79
2023-02-02T10:24:45.121Z,35.30
2023-02-02T10:27:11.869Z,35.93
2023-02-02T10:29:48.439Z,36.43
2023-02-02T10:32:22.397Z,37.49
2023-02-02T10:34:49.170Z,38.07
2023-02-02T10:37:15.907Z,37.38
2023-02-02T10:39:42.698Z,38.57
2023-02-02T10:42:09.844Z,37.84
2023-02-02T10:44:36.616Z,38.15
2023-02-02T10:47:03.405Z,37.80
2023-02-02T10:49:31.801Z,37.79
2023-02-02T10:51:58.548Z,38.11
2023-02-02T10:54:25.354Z,37.79
2023-02-02T10:56:53.852Z,37.95
2023-02-02T10:59:20.597Z,37.60
2023-02-02T11:01:48.488Z,37.67
2023-02-02T11:04:33.869Z,36.42
2023-02-02T11:07:01.697Z,35.52
2023-02-02T11:09:28.762Z,35.25
2023-02-02T11:11:55.633Z,35.02
2023-02-02T11:14:22.644Z,34.63
2023-02-02T11:16:49.421Z,34.80
2023-02-02T11:19:16.210Z,34.56
2023-02-02T11:21:43.168Z,34.51
2023-02-02T11:24:09.888Z,34.13
2023-02-02T11:26:36.637Z,34.04
2023-02-02T11:29:03.443Z,34.13
2023-02-02T11:31:30.433Z,33.89
2023-02-02T11:33:57.285Z,33.99
2023-02-02T11:36:24.023Z,34.10
2023-02-02T11:38:50.782Z,33.69
2023-02-02T11:41:19.079Z,33.59
2023-02-02T11:43:46.010Z,33.50
2023-02-02T11:46:12.799Z,33.70
2023-02-02T11:48:39.673Z,33.58
2023-02-02T11:51:06.493Z,33.71
2023-02-02T11:53:33.292Z,33.81
2023-02-02T11:56:00.075Z,33.41
2023-02-02T11:58:29.998Z,33.35
2023-02-02T12:00:56.814Z,33.57
2023-02-02T12:03:23.698Z,33.45
2023-02-02T12:05:50.499Z,33.13
2023-02-02T12:08:17.288Z,33.25
2023-02-02T12:10:44.058Z,33.42
2023-02-02T12:13:10.862Z,33.35
2023-02-02T12:15:37.632Z,33.42
2023-02-02T12:18:04.439Z,33.12
2023-02-02T12:20:31.194Z,33.26
2023-02-02T12:22:57.956Z,35.33
2023-02-02T12:25:25.109Z,35.05
2023-02-02T12:27:52.079Z,36.32
2023-02-02T12:30:18.824Z,37.18
2023-02-02T12:32:45.800Z,36.57
2023-02-02T12:35:12.545Z,35.22
2023-02-02T12:37:39.283Z,34.89
2023-02-02T12:40:06.117Z,34.38
2023-02-02T12:42:32.856Z,34.18
2023-02-02T12:44:59.871Z,34.15
2023-02-02T12:47:26.701Z,34.16
2023-02-02T12:49:53.669Z,33.89
2023-02-02T12:52:20.450Z,33.85
2023-02-02T12:54:55.685Z,33.92
2023-02-02T12:57:24.161Z,33.87
2023-02-02T12:59:50.938Z,33.59
2023-02-02T13:02:17.797Z,33.43
2023-02-02T13:04:44.566Z,33.54
2023-02-02T13:07:11.369Z,33.71
2023-02-02T13:09:38.112Z,33.30
2023-02-02T13:12:04.874Z,33.68
2023-02-02T13:14:31.705Z,34.70
2023-02-02T13:16:58.547Z,35.66
2023-02-02T13:19:25.322Z,36.29
2023-02-02T13:21:52.091Z,37.21
2023-02-02T13:24:18.867Z,37.64
2023-02-02T13:26:45.717Z,36.04
2023-02-02T13:29:12.655Z,35.15
2023-02-02T13:31:39.516Z,34.82
2023-02-02T13:34:06.288Z,34.49
2023-02-02T13:36:37.086Z,34.19
2023-02-02T13:39:03.927Z,33.95
2023-02-02T13:41:31.305Z,33.90
2023-02-02T13:43:59.178Z,33.95
2023-02-02T13:46:26.011Z,33.65
2023-02-02T13:48:52.903Z,33.51
2023-02-02T13:51:22.687Z,33.46
2023-02-02T13:53:49.531Z,33.81
2023-02-02T13:56:16.349Z,33.72
2023-02-02T13:58:43.263Z,33.51
2023-02-02T14:01:10.116Z,33.14
2023-02-02T14:03:38.732Z,33.23
2023-02-02T14:06:05.537Z,34.92
2023-02-02T14:08:32.292Z,35.37
2023-02-02T14:10:59.141Z,36.54
2023-02-02T14:13:44.650Z,37.26
2023-02-02T14:16:11.461Z,37.10
2023-02-02T14:18:38.233Z,36.95
2023-02-02T14:21:05.008Z,36.71
2023-02-02T14:23:31.754Z,36.91
2023-02-02T14:25:58.493Z,35.87
2023-02-02T14:28:25.255Z,35.39
2023-02-02T14:30:52.124Z,34.88
2023-02-02T14:33:18.942Z,34.28
2023-02-02T14:35:45.733Z,34.55
2023-02-02T14:38:13.458Z,34.29
2023-02-02T14:40:40.289Z,34.29
2023-02-02T14:43:25.817Z,34.16
2023-02-02T14:45:52.628Z,33.73
2023-02-02T14:48:19.722Z,33.94
2023-02-02T14:50:46.533Z,33.85
2023-02-02T14:53:13.294Z,33.54
2023-02-02T14:55:40.083Z,33.56
2023-02-02T14:58:06.850Z,33.41
2023-02-02T15:00:33.643Z,33.58
2023-02-02T15:03:00.391Z,33.27
2023-02-02T15:05:27.459Z,33.60
2023-02-02T15:07:54.677Z,33.56
2023-02-02T15:10:21.409Z,33.22
2023-02-02T15:12:49.676Z,33.37
2023-02-02T15:15:17.417Z,33.49
2023-02-02T15:17:48.664Z,35.76
2023-02-02T15:20:20.925Z,35.57
2023-02-02T15:22:47.693Z,38.19
2023-02-02T15:25:14.440Z,36.98
2023-02-02T15:27:55.099Z,35.73
2023-02-02T15:30:23.956Z,34.88
2023-02-02T15:32:50.752Z,34.84
2023-02-02T15:35:17.610Z,34.32
2023-02-02T15:37:44.884Z,34.17
2023-02-02T15:40:11.757Z,34.12
2023-02-02T15:42:53.932Z,33.94
2023-02-02T15:45:20.758Z,33.85
2023-02-02T15:47:47.514Z,33.73
2023-02-02T15:50:14.364Z,33.61
2023-02-02T15:52:41.114Z,33.93
2023-02-02T15:55:07.885Z,33.75
2023-02-02T15:57:34.653Z,33.51
2023-02-02T16:00:01.558Z,33.37
2023-02-02T16:02:28.327Z,33.33
2023-02-02T16:04:55.194Z,34.56
2023-02-02T16:07:22.038Z,36.18
2023-02-02T16:09:48.770Z,36.59
2023-02-02T16:12:18.471Z,37.63
2023-02-02T16:14:45.225Z,35.77
2023-02-02T16:17:12.502Z,35.24
2023-02-02T16:19:39.433Z,34.57
2023-02-02T16:22:06.214Z,34.39
2023-02-02T16:24:33.027Z,34.50
2023-02-02T16:26:59.755Z,34.50
2023-02-02T16:29:27.984Z,33.92
2023-02-02T16:31:54.764Z,33.84
2023-02-02T16:34:21.527Z,33.80
2023-02-02T16:36:48.363Z,33.95
2023-02-02T16:39:15.091Z,33.62
2023-02-02T16:41:41.872Z,33.47
2023-02-02T16:44:08.654Z,33.29
2023-02-02T16:46:35.396Z,33.40
2023-02-02T16:49:02.170Z,33.19
2023-02-02T16:51:29.012Z,33.33
2023-02-02T16:53:55.759Z,33.40
2023-02-02T16:56:22.501Z,34.57
2023-02-02T16:58:49.314Z,36.21
2023-02-02T17:01:17.014Z,37.38
2023-02-02T17:03:43.852Z,37.90
2023-02-02T17:06:10.629Z,36.39
2023-02-02T17:08:37.386Z,35.31
2023-02-02T17:11:04.161Z,34.80
2023-02-02T17:13:30.965Z,34.72
2023-02-02T17:15:57.843Z,34.44
2023-02-02T17:18:24.562Z,34.26
2023-02-02T17:20:57.335Z,34.28
2023-02-02T17:23:24.101Z,33.88
2023-02-02T17:25:50.838Z,34.10
2023-02-02T17:28:17.711Z,33.92
2023-02-02T17:30:44.540Z,33.68
2023-02-02T17:33:11.443Z,33.57
2023-02-02T17:35:53.243Z,33.45
2023-02-02T17:38:21.511Z,33.37
2023-02-02T17:40:48.307Z,33.47
2023-02-02T17:43:16.005Z,33.43
2023-02-02T17:45:42.998Z,33.40
2023-02-02T17:48:09.755Z,33.21
2023-02-02T17:50:36.555Z,33.20
2023-02-02T17:53:03.413Z,36.36
2023-02-02T17:55:30.306Z,37.12
2023-02-02T17:57:57.053Z,38.59
2023-02-02T18:00:24.101Z,36.89
2023-02-02T18:02:51.062Z,35.68
2023-02-02T18:05:17.789Z,34.98
2023-02-02T18:07:44.601Z,34.75
2023-02-02T18:10:11.371Z,34.63
2023-02-02T18:12:38.946Z,34.28
2023-02-02T18:15:05.740Z,33.98
2023-02-02T18:17:34.044Z,33.82
2023-02-02T18:20:00.938Z,33.85
2023-02-02T18:22:27.749Z,33.71
2023-02-02T18:24:54.532Z,33.84
2023-02-02T18:27:21.294Z,33.81
2023-02-02T18:29:48.078Z,33.45
2023-02-02T18:32:14.847Z,33.45
2023-02-02T18:34:41.615Z,33.67
2023-02-02T18:37:08.364Z,33.22
2023-02-02T18:39:35.133Z,33.34
2023-02-02T18:42:02.416Z,33.93
2023-02-02T18:44:29.448Z,36.85
2023-02-02T18:46:56.244Z,37.38
2023-02-02T18:49:23.115Z,38.68
2023-02-02T18:51:49.959Z,36.34
2023-02-02T18:54:16.801Z,35.35
2023-02-02T18:56:43.548Z,34.99
2023-02-02T18:59:10.326Z,34.54
2023-02-02T19:01:37.213Z,34.46
2023-02-02T19:04:04.141Z,34.41
2023-02-02T19:06:49.710Z,34.00
2023-02-02T19:09:17.206Z,34.14
2023-02-02T19:11:44.823Z,33.68
2023-02-02T19:14:11.711Z,33.71
2023-02-02T19:16:38.456Z,33.80
2023-02-02T19:19:05.239Z,33.56
2023-02-02T19:21:32.021Z,33.61
2023-02-02T19:23:58.746Z,33.33
2023-02-02T19:26:25.601Z,33.31
2023-02-02T19:28:52.431Z,33.32
2023-02-02T19:31:19.309Z,33.51
2023-02-02T19:33:46.137Z,35.40
2023-02-02T19:36:12.880Z,38.10
2023-02-02T19:38:39.607Z,40.12
2023-02-02T19:41:07.628Z,38.22
2023-02-02T19:43:36.319Z,36.26
2023-02-02T19:46:03.108Z,35.54
2023-02-02T19:48:29.980Z,34.84
2023-02-02T19:50:56.811Z,34.67
2023-02-02T19:53:23.568Z,34.52
2023-02-02T19:55:50.346Z,34.38
2023-02-02T19:58:17.104Z,34.14
2023-02-02T20:00:46.643Z,33.86
2023-02-02T20:03:13.567Z,33.80
2023-02-02T20:05:40.678Z,33.75
2023-02-02T20:08:07.442Z,33.42
2023-02-02T20:10:34.203Z,33.64
2023-02-02T20:13:00.943Z,33.69
2023-02-02T20:15:28.067Z,33.40
2023-02-02T20:17:55.083Z,33.27
2023-02-02T20:20:22.042Z,33.41
2023-02-02T20:22:48.793Z,33.57
2023-02-02T20:25:15.594Z,33.43
2023-02-02T20:27:43.753Z,33.44
2023-02-02T20:30:10.507Z,35.80
2023-02-02T20:32:37.347Z,37.51
2023-02-02T20:35:04.092Z,40.69
2023-02-02T20:37:30.886Z,37.04
2023-02-02T20:39:57.669Z,35.83
2023-02-02T20:42:24.500Z,35.14
2023-02-02T20:44:51.250Z,34.74
2023-02-02T20:47:17.981Z,34.37
2023-02-02T20:49:44.765Z,34.35
2023-02-02T20:52:12.846Z,34.05
2023-02-02T20:54:39.648Z,33.91
2023-02-02T20:57:06.435Z,33.90
2023-02-02T20:59:33.188Z,33.85
2023-02-02T21:02:00.057Z,33.84
2023-02-02T21:04:26.849Z,33.61
2023-02-02T21:06:55.174Z,33.59
2023-02-02T21:09:22.040Z,33.59
2023-02-02T21:11:48.858Z,33.28
2023-02-02T21:14:15.854Z,33.41
2023-02-02T21:16:42.653Z,33.29
2023-02-02T21:19:09.463Z,33.29
2023-02-02T21:21:36.267Z,33.33
2023-02-02T21:24:04.063Z,33.23
2023-02-02T21:26:31.116Z,35.17
2023-02-02T21:28:58.345Z,38.46
2023-02-02T21:31:25.425Z,40.45
2023-02-02T21:33:53.037Z,37.18
2023-02-02T21:36:20.656Z,36.05
2023-02-02T21:38:47.408Z,35.49
2023-02-02T21:41:14.218Z,34.86
2023-02-02T21:43:40.966Z,34.41
2023-02-02T21:46:07.753Z,34.27
2023-02-02T21:48:34.662Z,33.86
2023-02-02T21:51:01.390Z,33.76
2023-02-02T21:53:28.140Z,33.55
2023-02-02T21:55:55.042Z,33.95
2023-02-02T21:58:22.203Z,33.52
2023-02-02T22:00:48.947Z,33.62
2023-02-02T22:03:15.693Z,33.38
2023-02-02T22:05:42.477Z,33.33
2023-02-02T22:08:09.224Z,33.08
2023-02-02T22:10:36.493Z,33.27
2023-02-02T22:13:03.235Z,33.56
2023-02-02T22:15:29.974Z,33.35
2023-02-02T22:17:56.779Z,33.28
2023-02-02T22:20:23.521Z,36.46
2023-02-02T22:22:50.276Z,38.72
2023-02-02T22:25:17.092Z,40.31
2023-02-02T22:27:43.855Z,36.37
2023-02-02T22:30:10.615Z,35.50
2023-02-02T22:32:37.366Z,35.06
2023-02-02T22:35:04.167Z,34.73
2023-02-02T22:37:30.897Z,34.11
2023-02-02T22:40:00.355Z,33.91
2023-02-02T22:42:27.508Z,33.94
2023-02-02T22:44:54.279Z,34.03
2023-02-02T22:47:21.078Z,33.66
2023-02-02T22:49:47.818Z,33.82
2023-02-02T22:52:14.583Z,33.47
2023-02-02T22:54:41.375Z,33.48
2023-02-02T22:57:08.108Z,33.33
2023-02-02T22:59:34.852Z,33.32
2023-02-02T23:02:01.618Z,33.18
2023-02-02T23:04:28.358Z,33.14
2023-02-02T23:06:55.123Z,33.13
2023-02-02T23:09:21.873Z,33.28
2023-02-02T23:11:49.494Z,33.94
2023-02-02T23:14:16.328Z,37.79
2023-02-02T23:16:43.088Z,39.40
2023-02-02T23:19:09.833Z,38.17
2023-02-02T23:21:36.617Z,36.24
2023-02-02T23:24:03.376Z,35.38
2023-02-02T23:26:30.156Z,34.40
2023-02-02T23:28:56.908Z,34.22
2023-02-02T23:31:23.835Z,34.46
2023-02-02T23:33:50.680Z,34.09
2023-02-02T23:36:17.411Z,33.64
2023-02-02T23:38:44.188Z,33.73
2023-02-02T23:41:10.944Z,33.42
2023-02-02T23:43:37.677Z,33.73
2023-02-02T23:46:04.530Z,33.47
2023-02-02T23:48:31.324Z,33.23
2023-02-02T23:50:58.131Z,33.44
2023-02-02T23:53:24.922Z,33.26
2023-02-02T23:55:51.689Z,33.22
2023-02-02T23:58:20.410Z,33.23
